sensor_id;sensor_type;location;lat;lon;timestamp;pressure;altitude;pressure_sealevel;temperature;humidity
85623;BME280;76049;43.076;25.632;2024-03-06T00:00:51;99298.23;;;10.79;65.82
85623;BME280;76049;43.076;25.632;2024-03-06T00:06:27;99297.69;;;10.72;66.17
85623;BME280;76049;43.076;25.632;2024-03-06T00:11:36;99302.20;;;10.72;66.56
85623;BME280;76049;43.076;25.632;2024-03-06T00:16:44;99307.23;;;10.69;66.41
85623;BME280;76049;43.076;25.632;2024-03-06T00:21:52;99306.23;;;10.66;65.81
85623;BME280;76049;43.076;25.632;2024-03-06T00:26:59;99302.40;;;10.58;65.57
85623;BME280;76049;43.076;25.632;2024-03-06T00:32:08;99311.52;;;10.50;66.05
85623;BME280;76049;43.076;25.632;2024-03-06T00:37:16;99315.54;;;10.41;66.01
85623;BME280;76049;43.076;25.632;2024-03-06T00:42:24;99315.54;;;10.32;66.09
85623;BME280;76049;43.076;25.632;2024-03-06T00:47:32;99315.76;;;10.27;65.75
85623;BME280;76049;43.076;25.632;2024-03-06T00:52:41;99315.58;;;10.26;65.70
85623;BME280;76049;43.076;25.632;2024-03-06T00:57:49;99318.07;;;10.27;65.35
85623;BME280;76049;43.076;25.632;2024-03-06T01:02:57;99311.13;;;10.27;65.21
85623;BME280;76049;43.076;25.632;2024-03-06T01:08:07;99310.08;;;10.25;65.06
85623;BME280;76049;43.076;25.632;2024-03-06T01:13:15;99307.48;;;10.20;65.25
85623;BME280;76049;43.076;25.632;2024-03-06T01:18:23;99314.19;;;10.15;65.54
85623;BME280;76049;43.076;25.632;2024-03-06T01:23:30;99323.86;;;10.16;65.58
85623;BME280;76049;43.076;25.632;2024-03-06T01:28:39;99334.77;;;10.22;65.56
85623;BME280;76049;43.076;25.632;2024-03-06T01:33:48;99340.21;;;10.28;65.69
85623;BME280;76049;43.076;25.632;2024-03-06T01:38:56;99338.39;;;10.28;65.41
85623;BME280;76049;43.076;25.632;2024-03-06T01:44:04;99348.17;;;10.24;65.46
85623;BME280;76049;43.076;25.632;2024-03-06T01:49:14;99353.19;;;10.15;65.52
85623;BME280;76049;43.076;25.632;2024-03-06T01:54:23;99358.80;;;10.04;65.08
85623;BME280;76049;43.076;25.632;2024-03-06T01:59:32;99357.93;;;9.95;65.23
85623;BME280;76049;43.076;25.632;2024-03-06T02:04:40;99356.79;;;9.90;65.14
85623;BME280;76049;43.076;25.632;2024-03-06T02:09:49;99355.20;;;9.88;65.10
85623;BME280;76049;43.076;25.632;2024-03-06T02:14:57;99360.30;;;9.83;64.97
85623;BME280;76049;43.076;25.632;2024-03-06T02:20:08;99363.55;;;9.78;64.95
85623;BME280;76049;43.076;25.632;2024-03-06T02:25:19;99372.84;;;9.74;65.11
85623;BME280;76049;43.076;25.632;2024-03-06T02:30:27;99378.49;;;9.67;64.64
85623;BME280;76049;43.076;25.632;2024-03-06T02:35:36;99378.15;;;9.58;64.38
85623;BME280;76049;43.076;25.632;2024-03-06T02:40:45;99379.30;;;9.49;63.97
85623;BME280;76049;43.076;25.632;2024-03-06T02:45:54;99381.58;;;9.47;63.93
85623;BME280;76049;43.076;25.632;2024-03-06T02:51:02;99388.16;;;9.46;63.57
85623;BME280;76049;43.076;25.632;2024-03-06T02:56:17;99388.48;;;9.42;63.34
85623;BME280;76049;43.076;25.632;2024-03-06T03:01:24;99386.74;;;9.38;63.15
85623;BME280;76049;43.076;25.632;2024-03-06T03:06:34;99397.11;;;9.35;63.14
85623;BME280;76049;43.076;25.632;2024-03-06T03:11:43;99401.31;;;9.30;63.30
85623;BME280;76049;43.076;25.632;2024-03-06T03:16:51;99398.45;;;9.26;63.14
85623;BME280;76049;43.076;25.632;2024-03-06T03:21:59;99396.44;;;9.24;63.49
85623;BME280;76049;43.076;25.632;2024-03-06T03:27:11;99396.02;;;9.25;63.37
85623;BME280;76049;43.076;25.632;2024-03-06T03:32:18;99400.64;;;9.28;63.64
85623;BME280;76049;43.076;25.632;2024-03-06T03:37:26;99400.59;;;9.28;63.69
85623;BME280;76049;43.076;25.632;2024-03-06T03:42:34;99394.55;;;9.27;63.59
85623;BME280;76049;43.076;25.632;2024-03-06T03:47:44;99395.83;;;9.22;63.58
85623;BME280;76049;43.076;25.632;2024-03-06T03:52:52;99397.35;;;9.15;63.60
85623;BME280;76049;43.076;25.632;2024-03-06T03:58:00;99407.55;;;9.12;64.14
85623;BME280;76049;43.076;25.632;2024-03-06T04:03:08;99415.29;;;9.10;64.18
85623;BME280;76049;43.076;25.632;2024-03-06T04:08:16;99422.02;;;9.11;64.33
85623;BME280;76049;43.076;25.632;2024-03-06T04:13:24;99425.86;;;9.17;64.35
85623;BME280;76049;43.076;25.632;2024-03-06T04:18:33;99429.48;;;9.21;64.16
85623;BME280;76049;43.076;25.632;2024-03-06T04:23:40;99430.38;;;9.19;64.52
85623;BME280;76049;43.076;25.632;2024-03-06T04:28:48;99433.24;;;9.21;64.46
85623;BME280;76049;43.076;25.632;2024-03-06T04:33:56;99439.02;;;9.17;64.77
85623;BME280;76049;43.076;25.632;2024-03-06T04:39:04;99443.60;;;9.19;65.03
85623;BME280;76049;43.076;25.632;2024-03-06T04:44:13;99442.64;;;9.21;65.08
85623;BME280;76049;43.076;25.632;2024-03-06T04:49:21;99447.30;;;9.24;64.89
85623;BME280;76049;43.076;25.632;2024-03-06T04:54:30;99448.91;;;9.21;64.67
85623;BME280;76049;43.076;25.632;2024-03-06T04:59:37;99450.52;;;9.14;64.81
85623;BME280;76049;43.076;25.632;2024-03-06T05:04:45;99450.67;;;9.12;65.15
85623;BME280;76049;43.076;25.632;2024-03-06T05:09:54;99454.95;;;9.11;65.08
85623;BME280;76049;43.076;25.632;2024-03-06T05:15:02;99460.38;;;9.11;64.85
85623;BME280;76049;43.076;25.632;2024-03-06T05:20:12;99458.67;;;9.09;64.63
85623;BME280;76049;43.076;25.632;2024-03-06T05:25:20;99466.32;;;9.11;64.54
85623;BME280;76049;43.076;25.632;2024-03-06T05:30:29;99470.02;;;9.20;64.61
85623;BME280;76049;43.076;25.632;2024-03-06T05:35:37;99478.23;;;9.32;64.48
85623;BME280;76049;43.076;25.632;2024-03-06T05:40:45;99488.14;;;9.40;64.29
85623;BME280;76049;43.076;25.632;2024-03-06T05:45:54;99497.36;;;9.39;64.17
85623;BME280;76049;43.076;25.632;2024-03-06T05:51:04;99500.90;;;9.39;64.19
85623;BME280;76049;43.076;25.632;2024-03-06T05:56:14;99507.92;;;9.36;64.05
85623;BME280;76049;43.076;25.632;2024-03-06T06:01:23;99511.70;;;9.33;64.02
85623;BME280;76049;43.076;25.632;2024-03-06T06:06:31;99514.90;;;9.33;64.31
85623;BME280;76049;43.076;25.632;2024-03-06T06:11:40;99514.08;;;9.38;63.90
85623;BME280;76049;43.076;25.632;2024-03-06T06:16:49;99517.17;;;9.43;63.66
85623;BME280;76049;43.076;25.632;2024-03-06T06:21:58;99517.36;;;9.47;63.54
85623;BME280;76049;43.076;25.632;2024-03-06T06:27:07;99520.29;;;9.49;63.58
85623;BME280;76049;43.076;25.632;2024-03-06T06:32:15;99519.15;;;9.46;63.57
85623;BME280;76049;43.076;25.632;2024-03-06T06:37:23;99525.61;;;9.46;63.97
85623;BME280;76049;43.076;25.632;2024-03-06T06:42:31;99533.02;;;9.47;63.89
85623;BME280;76049;43.076;25.632;2024-03-06T06:47:39;99530.90;;;9.48;64.05
85623;BME280;76049;43.076;25.632;2024-03-06T06:52:48;99534.83;;;9.51;63.91
85623;BME280;76049;43.076;25.632;2024-03-06T06:57:56;99533.85;;;9.57;63.45
85623;BME280;76049;43.076;25.632;2024-03-06T07:03:06;99538.02;;;9.62;63.27
85623;BME280;76049;43.076;25.632;2024-03-06T07:08:14;99544.39;;;9.64;63.42
85623;BME280;76049;43.076;25.632;2024-03-06T07:13:22;99545.93;;;9.63;63.67
85623;BME280;76049;43.076;25.632;2024-03-06T07:18:30;99548.23;;;9.58;63.94
85623;BME280;76049;43.076;25.632;2024-03-06T07:23:39;99553.63;;;9.56;64.04
85623;BME280;76049;43.076;25.632;2024-03-06T07:28:47;99555.80;;;9.60;63.90
85623;BME280;76049;43.076;25.632;2024-03-06T07:33:55;99561.79;;;9.65;63.53
85623;BME280;76049;43.076;25.632;2024-03-06T07:39:04;99568.98;;;9.74;63.36
85623;BME280;76049;43.076;25.632;2024-03-06T07:44:14;99566.21;;;9.84;63.45
85623;BME280;76049;43.076;25.632;2024-03-06T07:49:22;99567.13;;;9.91;63.61
85623;BME280;76049;43.076;25.632;2024-03-06T07:54:31;99573.41;;;9.98;63.75
85623;BME280;76049;43.076;25.632;2024-03-06T07:59:38;99578.39;;;10.02;63.73
85623;BME280;76049;43.076;25.632;2024-03-06T08:04:44;99574.77;;;10.05;63.79
85623;BME280;76049;43.076;25.632;2024-03-06T08:09:51;99584.33;;;10.08;64.01
85623;BME280;76049;43.076;25.632;2024-03-06T08:14:58;99587.42;;;10.13;63.71
85623;BME280;76049;43.076;25.632;2024-03-06T08:20:07;99588.73;;;10.24;63.79
85623;BME280;76049;43.076;25.632;2024-03-06T08:25:14;99590.03;;;10.34;63.63
85623;BME280;76049;43.076;25.632;2024-03-06T08:30:20;99587.09;;;10.44;63.43
85623;BME280;76049;43.076;25.632;2024-03-06T08:35:26;99588.58;;;10.54;63.02
85623;BME280;76049;43.076;25.632;2024-03-06T08:40:32;99590.30;;;10.65;62.96
85623;BME280;76049;43.076;25.632;2024-03-06T08:45:38;99596.73;;;10.70;62.48
85623;BME280;76049;43.076;25.632;2024-03-06T08:50:45;99599.52;;;10.70;62.79
85623;BME280;76049;43.076;25.632;2024-03-06T08:55:51;99593.24;;;10.68;62.28
85623;BME280;76049;43.076;25.632;2024-03-06T09:00:57;99595.94;;;10.67;62.33
85623;BME280;76049;43.076;25.632;2024-03-06T09:06:05;99598.97;;;10.73;62.41
85623;BME280;76049;43.076;25.632;2024-03-06T09:11:10;99600.60;;;10.71;62.17
85623;BME280;76049;43.076;25.632;2024-03-06T09:16:16;99595.93;;;10.64;62.04
85623;BME280;76049;43.076;25.632;2024-03-06T09:21:22;99602.41;;;10.61;62.03
85623;BME280;76049;43.076;25.632;2024-03-06T09:26:28;99603.16;;;10.62;61.82
85623;BME280;76049;43.076;25.632;2024-03-06T09:31:33;99607.48;;;10.62;62.07
85623;BME280;76049;43.076;25.632;2024-03-06T09:36:39;99605.58;;;10.69;61.84
85623;BME280;76049;43.076;25.632;2024-03-06T09:41:45;99607.06;;;10.75;61.91
85623;BME280;76049;43.076;25.632;2024-03-06T09:46:51;99603.23;;;10.85;61.59
85623;BME280;76049;43.076;25.632;2024-03-06T09:51:58;99602.96;;;10.90;61.09
85623;BME280;76049;43.076;25.632;2024-03-06T09:57:05;99602.26;;;10.98;60.96
85623;BME280;76049;43.076;25.632;2024-03-06T10:02:36;99603.48;;;11.18;60.59
85623;BME280;76049;43.076;25.632;2024-03-06T10:07:43;99601.84;;;11.34;60.16
85623;BME280;76049;43.076;25.632;2024-03-06T10:12:50;99602.58;;;11.51;59.64
85623;BME280;76049;43.076;25.632;2024-03-06T10:18:11;99600.56;;;11.66;59.15
85623;BME280;76049;43.076;25.632;2024-03-06T10:23:17;99595.96;;;11.83;58.77
85623;BME280;76049;43.076;25.632;2024-03-06T10:28:24;99593.95;;;11.98;58.31
85623;BME280;76049;43.076;25.632;2024-03-06T10:33:33;99595.19;;;12.10;57.98
85623;BME280;76049;43.076;25.632;2024-03-06T10:38:39;99588.17;;;12.31;57.72
85623;BME280;76049;43.076;25.632;2024-03-06T10:43:49;99583.65;;;12.45;57.05
85623;BME280;76049;43.076;25.632;2024-03-06T10:48:58;99578.35;;;12.53;56.73
85623;BME280;76049;43.076;25.632;2024-03-06T10:54:05;99576.63;;;12.51;56.20
85623;BME280;76049;43.076;25.632;2024-03-06T10:59:15;99579.59;;;12.35;56.19
85623;BME280;76049;43.076;25.632;2024-03-06T11:04:21;99571.30;;;12.30;56.26
85623;BME280;76049;43.076;25.632;2024-03-06T11:09:28;99572.73;;;12.28;56.01
85623;BME280;76049;43.076;25.632;2024-03-06T11:14:35;99568.70;;;12.20;56.12
85623;BME280;76049;43.076;25.632;2024-03-06T11:20:12;99564.61;;;12.02;56.35
85623;BME280;76049;43.076;25.632;2024-03-06T11:30:58;99556.35;;;11.80;57.71
85623;BME280;76049;43.076;25.632;2024-03-06T11:36:19;99550.09;;;11.92;58.07
85623;BME280;76049;43.076;25.632;2024-03-06T11:41:26;99548.59;;;12.00;57.57
85623;BME280;76049;43.076;25.632;2024-03-06T11:46:45;99548.65;;;12.00;57.58
85623;BME280;76049;43.076;25.632;2024-03-06T11:51:52;99543.75;;;11.82;57.56
85623;BME280;76049;43.076;25.632;2024-03-06T11:56:59;99538.84;;;11.71;58.90
85623;BME280;76049;43.076;25.632;2024-03-06T12:02:06;99535.97;;;11.65;59.08
85623;BME280;76049;43.076;25.632;2024-03-06T12:07:14;99536.27;;;11.68;59.08
85623;BME280;76049;43.076;25.632;2024-03-06T12:12:20;99538.13;;;11.85;58.84
85623;BME280;76049;43.076;25.632;2024-03-06T12:17:26;99537.20;;;12.02;58.72
85623;BME280;76049;43.076;25.632;2024-03-06T12:22:33;99536.86;;;11.93;58.62
85623;BME280;76049;43.076;25.632;2024-03-06T12:27:39;99528.06;;;11.92;58.68
85623;BME280;76049;43.076;25.632;2024-03-06T12:32:45;99528.73;;;11.97;58.65
85623;BME280;76049;43.076;25.632;2024-03-06T12:37:51;99534.35;;;11.98;58.39
85623;BME280;76049;43.076;25.632;2024-03-06T12:42:57;99529.00;;;11.95;58.54
85623;BME280;76049;43.076;25.632;2024-03-06T12:48:04;99532.98;;;11.89;58.53
85623;BME280;76049;43.076;25.632;2024-03-06T12:53:10;99533.08;;;11.71;58.73
85623;BME280;76049;43.076;25.632;2024-03-06T12:58:16;99525.48;;;11.59;59.07
85623;BME280;76049;43.076;25.632;2024-03-06T13:03:21;99520.09;;;11.47;59.46
85623;BME280;76049;43.076;25.632;2024-03-06T13:08:27;99523.23;;;11.39;59.61
85623;BME280;76049;43.076;25.632;2024-03-06T13:13:33;99518.33;;;11.42;59.74
85623;BME280;76049;43.076;25.632;2024-03-06T13:18:40;99518.01;;;11.48;59.46
85623;BME280;76049;43.076;25.632;2024-03-06T13:23:46;99519.20;;;11.50;59.47
85623;BME280;76049;43.076;25.632;2024-03-06T13:28:51;99512.84;;;11.50;59.14
85623;BME280;76049;43.076;25.632;2024-03-06T13:33:57;99506.05;;;11.61;59.19
85623;BME280;76049;43.076;25.632;2024-03-06T13:39:04;99503.17;;;11.75;58.84
85623;BME280;76049;43.076;25.632;2024-03-06T13:44:11;99497.90;;;11.80;58.59
85623;BME280;76049;43.076;25.632;2024-03-06T13:49:38;99500.44;;;11.88;58.47
85623;BME280;76049;43.076;25.632;2024-03-06T13:54:44;99493.13;;;12.06;57.81
85623;BME280;76049;43.076;25.632;2024-03-06T13:59:51;99491.55;;;12.20;57.08
85623;BME280;76049;43.076;25.632;2024-03-06T14:05:00;99484.77;;;12.30;56.49
85623;BME280;76049;43.076;25.632;2024-03-06T14:10:09;99484.53;;;12.36;56.14
85623;BME280;76049;43.076;25.632;2024-03-06T14:15:15;99486.20;;;12.45;56.18
85623;BME280;76049;43.076;25.632;2024-03-06T14:20:24;99488.59;;;12.49;55.87
85623;BME280;76049;43.076;25.632;2024-03-06T14:25:29;99491.68;;;12.53;55.56
85623;BME280;76049;43.076;25.632;2024-03-06T14:38:36;99490.96;;;12.61;55.09
85623;BME280;76049;43.076;25.632;2024-03-06T14:43:42;99494.65;;;12.53;54.90
85623;BME280;76049;43.076;25.632;2024-03-06T14:48:49;99490.45;;;12.54;54.90
85623;BME280;76049;43.076;25.632;2024-03-06T14:53:55;99485.45;;;12.58;54.56
85623;BME280;76049;43.076;25.632;2024-03-06T14:59:01;99489.57;;;12.62;54.30
85623;BME280;76049;43.076;25.632;2024-03-06T15:04:08;99492.91;;;12.62;54.20
85623;BME280;76049;43.076;25.632;2024-03-06T15:09:13;99500.77;;;12.56;53.96
85623;BME280;76049;43.076;25.632;2024-03-06T15:14:26;99497.52;;;12.46;53.89
85623;BME280;76049;43.076;25.632;2024-03-06T15:19:32;99498.44;;;12.36;54.03
85623;BME280;76049;43.076;25.632;2024-03-06T15:24:39;99495.80;;;12.29;54.04
85623;BME280;76049;43.076;25.632;2024-03-06T15:29:48;99498.21;;;12.24;53.67
85623;BME280;76049;43.076;25.632;2024-03-06T15:34:54;99503.02;;;12.26;53.65
85623;BME280;76049;43.076;25.632;2024-03-06T15:40:02;99498.96;;;12.24;53.65
85623;BME280;76049;43.076;25.632;2024-03-06T15:45:12;99499.39;;;12.22;53.68
85623;BME280;76049;43.076;25.632;2024-03-06T15:50:18;99498.81;;;12.17;53.69
85623;BME280;76049;43.076;25.632;2024-03-06T15:55:24;99505.08;;;12.10;53.87
85623;BME280;76049;43.076;25.632;2024-03-06T16:00:30;99505.34;;;12.02;54.15
85623;BME280;76049;43.076;25.632;2024-03-06T16:05:36;99502.47;;;11.93;54.43
85623;BME280;76049;43.076;25.632;2024-03-06T16:10:44;99503.39;;;11.85;54.63
85623;BME280;76049;43.076;25.632;2024-03-06T16:15:50;99511.27;;;11.76;54.90
85623;BME280;76049;43.076;25.632;2024-03-06T16:20:56;99516.02;;;11.68;55.03
85623;BME280;76049;43.076;25.632;2024-03-06T16:32:28;99519.70;;;11.59;55.21
85623;BME280;76049;43.076;25.632;2024-03-06T16:37:35;99520.04;;;11.47;55.69
85623;BME280;76049;43.076;25.632;2024-03-06T16:42:40;99529.21;;;11.38;55.96
85623;BME280;76049;43.076;25.632;2024-03-06T16:47:47;99530.86;;;11.26;56.31
85623;BME280;76049;43.076;25.632;2024-03-06T16:52:54;99531.10;;;10.95;57.10
85623;BME280;76049;43.076;25.632;2024-03-06T16:58:00;99531.30;;;10.64;57.62
85623;BME280;76049;43.076;25.632;2024-03-06T17:03:07;99532.88;;;10.43;58.15
85623;BME280;76049;43.076;25.632;2024-03-06T17:08:16;99538.93;;;10.27;58.48
85623;BME280;76049;43.076;25.632;2024-03-06T17:13:23;99545.11;;;10.15;58.93
85623;BME280;76049;43.076;25.632;2024-03-06T17:18:32;99545.95;;;10.07;59.51
85623;BME280;76049;43.076;25.632;2024-03-06T17:23:40;99553.09;;;10.03;59.86
85623;BME280;76049;43.076;25.632;2024-03-06T17:28:50;99554.50;;;9.97;60.04
85623;BME280;76049;43.076;25.632;2024-03-06T17:34:00;99557.44;;;9.90;60.26
85623;BME280;76049;43.076;25.632;2024-03-06T17:39:08;99554.54;;;9.80;60.42
85623;BME280;76049;43.076;25.632;2024-03-06T17:44:17;99552.29;;;9.67;60.79
85623;BME280;76049;43.076;25.632;2024-03-06T17:49:25;99550.54;;;9.62;60.86
85623;BME280;76049;43.076;25.632;2024-03-06T17:54:33;99547.91;;;9.54;61.10
85623;BME280;76049;43.076;25.632;2024-03-06T17:59:41;99545.99;;;9.43;61.36
85623;BME280;76049;43.076;25.632;2024-03-06T18:04:50;99553.82;;;9.34;61.35
85623;BME280;76049;43.076;25.632;2024-03-06T18:14:59;99551.44;;;9.18;60.87
85623;BME280;76049;43.076;25.632;2024-03-06T18:25:09;99547.24;;;9.16;60.88
85623;BME280;76049;43.076;25.632;2024-03-06T18:30:17;99551.55;;;9.13;60.93
85623;BME280;76049;43.076;25.632;2024-03-06T18:35:24;99553.11;;;9.08;60.95
85623;BME280;76049;43.076;25.632;2024-03-06T18:40:33;99552.08;;;8.99;61.22
85623;BME280;76049;43.076;25.632;2024-03-06T18:45:42;99549.83;;;8.89;61.55
85623;BME280;76049;43.076;25.632;2024-03-06T18:50:50;99555.16;;;8.77;61.83
85623;BME280;76049;43.076;25.632;2024-03-06T18:55:59;99559.73;;;8.67;62.10
85623;BME280;76049;43.076;25.632;2024-03-06T19:01:08;99561.90;;;8.57;62.27
85623;BME280;76049;43.076;25.632;2024-03-06T19:06:17;99566.00;;;8.48;61.83
85623;BME280;76049;43.076;25.632;2024-03-06T19:11:25;99564.80;;;8.50;61.87
85623;BME280;76049;43.076;25.632;2024-03-06T19:16:33;99564.45;;;8.49;62.25
85623;BME280;76049;43.076;25.632;2024-03-06T19:21:41;99562.80;;;8.37;62.42
85623;BME280;76049;43.076;25.632;2024-03-06T19:26:51;99569.66;;;8.33;62.52
85623;BME280;76049;43.076;25.632;2024-03-06T19:32:00;99565.56;;;8.31;63.37
85623;BME280;76049;43.076;25.632;2024-03-06T19:37:10;99564.23;;;8.32;64.01
85623;BME280;76049;43.076;25.632;2024-03-06T19:42:18;99573.52;;;8.29;64.23
85623;BME280;76049;43.076;25.632;2024-03-06T19:47:26;99574.67;;;8.23;64.18
85623;BME280;76049;43.076;25.632;2024-03-06T19:52:34;99570.42;;;8.31;64.42
85623;BME280;76049;43.076;25.632;2024-03-06T19:57:42;99576.51;;;8.38;63.75
85623;BME280;76049;43.076;25.632;2024-03-06T20:02:52;99574.55;;;8.33;63.40
85623;BME280;76049;43.076;25.632;2024-03-06T20:08:00;99575.47;;;8.27;63.37
85623;BME280;76049;43.076;25.632;2024-03-06T20:13:09;99577.36;;;8.15;63.21
85623;BME280;76049;43.076;25.632;2024-03-06T20:18:18;99579.52;;;7.97;63.57
85623;BME280;76049;43.076;25.632;2024-03-06T20:23:26;99580.98;;;7.83;63.61
85623;BME280;76049;43.076;25.632;2024-03-06T20:28:35;99576.32;;;7.72;64.01
85623;BME280;76049;43.076;25.632;2024-03-06T20:33:44;99582.59;;;7.66;64.24
85623;BME280;76049;43.076;25.632;2024-03-06T20:38:52;99582.16;;;7.64;64.27
85623;BME280;76049;43.076;25.632;2024-03-06T20:44:01;99592.77;;;7.68;64.17
85623;BME280;76049;43.076;25.632;2024-03-06T20:49:10;99594.11;;;7.72;64.60
85623;BME280;76049;43.076;25.632;2024-03-06T20:54:19;99590.44;;;7.78;64.68
85623;BME280;76049;43.076;25.632;2024-03-06T20:59:27;99590.80;;;7.82;64.47
85623;BME280;76049;43.076;25.632;2024-03-06T21:10:48;99580.46;;;7.79;64.10
85623;BME280;76049;43.076;25.632;2024-03-06T21:15:56;99581.21;;;7.73;64.36
85623;BME280;76049;43.076;25.632;2024-03-06T21:21:05;99583.61;;;7.75;64.06
85623;BME280;76049;43.076;25.632;2024-03-06T21:26:13;99587.73;;;7.77;64.08
85623;BME280;76049;43.076;25.632;2024-03-06T21:31:21;99584.30;;;7.75;64.30
85623;BME280;76049;43.076;25.632;2024-03-06T21:36:30;99584.69;;;7.80;64.56
85623;BME280;76049;43.076;25.632;2024-03-06T21:41:40;99582.77;;;7.80;64.13
85623;BME280;76049;43.076;25.632;2024-03-06T21:46:48;99579.06;;;7.81;64.36
85623;BME280;76049;43.076;25.632;2024-03-06T21:51:56;99575.70;;;7.84;64.36
85623;BME280;76049;43.076;25.632;2024-03-06T21:57:06;99570.86;;;7.90;63.16
85623;BME280;76049;43.076;25.632;2024-03-06T22:02:17;99565.70;;;7.93;63.18
85623;BME280;76049;43.076;25.632;2024-03-06T22:07:25;99558.98;;;8.01;62.57
85623;BME280;76049;43.076;25.632;2024-03-06T22:12:33;99559.70;;;8.08;62.02
85623;BME280;76049;43.076;25.632;2024-03-06T22:17:41;99556.60;;;8.16;61.38
85623;BME280;76049;43.076;25.632;2024-03-06T22:22:50;99555.21;;;8.20;61.14
85623;BME280;76049;43.076;25.632;2024-03-06T22:27:58;99550.29;;;8.23;60.78
85623;BME280;76049;43.076;25.632;2024-03-06T22:33:07;99549.86;;;8.22;60.27
85623;BME280;76049;43.076;25.632;2024-03-06T22:38:15;99545.05;;;8.19;59.84
85623;BME280;76049;43.076;25.632;2024-03-06T22:43:24;99537.96;;;8.14;59.48
85623;BME280;76049;43.076;25.632;2024-03-06T22:48:32;99533.64;;;8.72;65.97
85623;BME280;76049;43.076;25.632;2024-03-06T22:53:40;99529.24;;;8.86;59.21
85623;BME280;76049;43.076;25.632;2024-03-06T22:58:48;99523.98;;;8.65;58.66
85623;BME280;76049;43.076;25.632;2024-03-06T23:03:56;99520.73;;;8.43;58.80
85623;BME280;76049;43.076;25.632;2024-03-06T23:09:05;99520.70;;;8.28;58.97
85623;BME280;76049;43.076;25.632;2024-03-06T23:14:15;99517.62;;;8.16;59.01
85623;BME280;76049;43.076;25.632;2024-03-06T23:19:24;99523.74;;;8.03;59.23
85623;BME280;76049;43.076;25.632;2024-03-06T23:24:32;99525.83;;;7.91;59.56
85623;BME280;76049;43.076;25.632;2024-03-06T23:29:40;99525.27;;;7.88;59.93
85623;BME280;76049;43.076;25.632;2024-03-06T23:34:48;99518.77;;;7.83;59.69
85623;BME280;76049;43.076;25.632;2024-03-06T23:39:57;99520.02;;;7.79;59.59
85623;BME280;76049;43.076;25.632;2024-03-06T23:45:07;99523.38;;;7.74;59.61
85623;BME280;76049;43.076;25.632;2024-03-06T23:50:16;99524.41;;;7.66;59.39
85623;BME280;76049;43.076;25.632;2024-03-06T23:55:26;99523.89;;;7.60;59.78
